Terminal Aerodrome Forecast
Issued by NWS

Home | Current Version | Previous Version | Text Only | Print | Product List | Glossary On
Versions: 1 2 3 4 5 6 7 8 9 10 11 12 13 14 15 16 17 18 19 20 21 22 23 24 25 26 27 28 29 30 31
000
FTUS45 KBOU 260502 AAB
TAFAPA
TAF AMD
KAPA 260502Z 2605/2624 18020G30KT P6SM FEW100 BKN150
     FM260700 18014KT P6SM FEW120 SCT160
     FM261500 34006KT P6SM FEW150 SCT200
     FM261800 02007KT P6SM FEW090 SCT150=

USA.gov is the U.S. government's official web portal to all federal, state and local government web resources and services.